createdAt,value
2017-12-03T00:02:03.596Z,101058.05
2017-12-03T00:05:04.994Z,101054.36
2017-12-03T00:08:06.386Z,101061.13
2017-12-03T00:11:07.725Z,101048.03
2017-12-03T00:14:09.155Z,101038.39
2017-12-03T00:17:10.500Z,101052.36
2017-12-03T00:20:11.931Z,101040.09
2017-12-03T00:23:14.061Z,101033.30
2017-12-03T00:26:15.493Z,101040.56
2017-12-03T00:29:16.939Z,101041.18
2017-12-03T00:32:18.338Z,101029.22
2017-12-03T00:35:19.743Z,101029.52
2017-12-03T00:38:21.104Z,101020.47
2017-12-03T00:41:22.607Z,101023.55
2017-12-03T00:44:23.983Z,101031.48
2017-12-03T00:47:25.374Z,101016.08
2017-12-03T00:50:26.774Z,101011.00
2017-12-03T00:53:28.915Z,101017.64
2017-12-03T00:56:30.373Z,101017.41
2017-12-03T00:59:31.779Z,101014.31
2017-12-03T01:02:33.218Z,101018.46
2017-12-03T01:05:34.810Z,101015.45
2017-12-03T01:08:36.237Z,101009.67
2017-12-03T01:11:37.665Z,101013.52
2017-12-03T01:14:39.788Z,101015.92
2017-12-03T01:17:41.239Z,101010.73
2017-12-03T01:20:42.590Z,101012.18
2017-12-03T01:23:44.200Z,101025.00
2017-12-03T01:26:45.600Z,101016.00
2017-12-03T01:29:47.014Z,101011.91
2017-12-03T01:32:49.322Z,101015.16
2017-12-03T01:35:50.635Z,101009.59
2017-12-03T01:38:52.006Z,101005.73
2017-12-03T01:41:53.412Z,101000.81
2017-12-03T01:44:55.564Z,101002.55
2017-12-03T01:47:56.881Z,101000.46
2017-12-03T01:50:58.309Z,101005.66
2017-12-03T01:53:59.689Z,101009.27
2017-12-03T01:57:01.777Z,100993.16
2017-12-03T02:00:03.269Z,100994.62
2017-12-03T02:03:04.617Z,100998.79
2017-12-03T02:06:06.057Z,100989.33
2017-12-03T02:09:08.224Z,100975.76
2017-12-03T02:12:10.438Z,100974.00
2017-12-03T02:15:11.995Z,100969.96
2017-12-03T02:18:13.348Z,100971.78
2017-12-03T02:21:14.895Z,100969.21
2017-12-03T02:24:16.253Z,100959.14
2017-12-03T02:27:17.695Z,100955.08
2017-12-03T02:30:19.020Z,100952.76
2017-12-03T02:33:20.377Z,100957.59
2017-12-03T02:36:21.795Z,100955.28
2017-12-03T02:39:23.169Z,100968.05
2017-12-03T02:42:25.304Z,100971.20
2017-12-03T02:45:26.785Z,100968.64
2017-12-03T02:48:28.881Z,100966.98
2017-12-03T02:51:30.296Z,100964.22
2017-12-03T02:54:31.788Z,100964.59
2017-12-03T02:57:33.144Z,100968.16
2017-12-03T03:00:34.625Z,100961.78
2017-12-03T03:03:42.941Z,100949.70
2017-12-03T03:06:44.299Z,100951.52
2017-12-03T03:09:45.716Z,100950.95
2017-12-03T03:12:47.091Z,100944.95
2017-12-03T03:15:48.544Z,100942.06
2017-12-03T03:18:50.049Z,100927.32
2017-12-03T03:21:51.459Z,100921.94
2017-12-03T03:24:52.854Z,100923.59
2017-12-03T03:27:54.263Z,100926.88
2017-12-03T03:30:55.704Z,100916.61
2017-12-03T03:33:57.121Z,100913.28
2017-12-03T03:36:58.514Z,100905.08
2017-12-03T03:39:59.964Z,100911.97
2017-12-03T03:43:01.448Z,100916.36
2017-12-03T03:46:03.581Z,100909.20
2017-12-03T03:49:05.156Z,100913.22
2017-12-03T03:52:06.551Z,100920.30
2017-12-03T03:55:07.937Z,100911.29
2017-12-03T03:58:09.472Z,100917.18
2017-12-03T04:01:10.872Z,100906.00
2017-12-03T04:04:12.272Z,100912.13
2017-12-03T04:07:13.767Z,100905.73
2017-12-03T04:10:15.179Z,100908.27
2017-12-03T04:13:16.530Z,100904.51
2017-12-03T04:16:17.967Z,100906.48
2017-12-03T04:19:19.391Z,100898.67
2017-12-03T04:22:21.579Z,100913.36
2017-12-03T04:25:22.960Z,100912.81
2017-12-03T04:28:24.324Z,100906.75
2017-12-03T04:31:25.746Z,100904.01
2017-12-03T04:34:27.114Z,100905.17
2017-12-03T04:37:28.507Z,100913.88
2017-12-03T04:40:30.650Z,100914.23
2017-12-03T04:43:32.180Z,100898.35
2017-12-03T04:46:33.592Z,100904.95
2017-12-03T04:49:35.054Z,100906.71
2017-12-03T04:52:36.514Z,100899.41
2017-12-03T04:55:37.911Z,100898.71
2017-12-03T04:58:39.371Z,100904.50
2017-12-03T05:01:40.759Z,100898.73
2017-12-03T05:04:42.908Z,100893.50
2017-12-03T05:07:45.056Z,100894.37
2017-12-03T05:10:46.561Z,100897.35
2017-12-03T05:13:47.968Z,100895.59
2017-12-03T05:16:49.357Z,100891.59
2017-12-03T05:19:51.496Z,100879.75
2017-12-03T05:22:52.886Z,100873.09
2017-12-03T05:25:54.293Z,100872.02
2017-12-03T05:28:56.006Z,100872.99
2017-12-03T05:31:57.379Z,100879.07
2017-12-03T05:34:58.812Z,100871.58
2017-12-03T05:38:00.164Z,100877.87
2017-12-03T05:41:01.592Z,100870.90
2017-12-03T05:44:02.932Z,100873.77
2017-12-03T05:47:05.103Z,100864.42
2017-12-03T05:50:07.378Z,100867.19
2017-12-03T05:53:09.603Z,100857.02
2017-12-03T05:56:11.156Z,100848.58
2017-12-03T05:59:12.508Z,100858.83
2017-12-03T06:02:14.052Z,100860.09
2017-12-03T06:05:15.616Z,100846.62
2017-12-03T06:08:17.089Z,100846.78
2017-12-03T06:11:18.531Z,100845.84
2017-12-03T06:14:20.088Z,100844.78
2017-12-03T06:17:21.543Z,100855.30
2017-12-03T06:20:23.691Z,100853.91
2017-12-03T06:23:25.096Z,100854.28
2017-12-03T06:26:27.240Z,100851.59
2017-12-03T06:29:28.651Z,100857.26
2017-12-03T06:32:30.084Z,100857.87
2017-12-03T06:35:31.488Z,100867.33
2017-12-03T06:38:32.919Z,100852.33
2017-12-03T06:41:34.447Z,100851.95
2017-12-03T06:44:35.871Z,100857.34
2017-12-03T06:47:38.015Z,100854.98
2017-12-03T06:50:39.419Z,100849.79
2017-12-03T06:53:40.810Z,100865.42
2017-12-03T06:56:42.391Z,100864.58
2017-12-03T06:59:43.934Z,100862.39
2017-12-03T07:02:45.297Z,100865.61
2017-12-03T07:05:47.433Z,100861.54
2017-12-03T07:08:48.789Z,100865.55
2017-12-03T07:11:50.173Z,100875.25
2017-12-03T07:14:52.317Z,100874.80
2017-12-03T07:17:53.698Z,100874.06
2017-12-03T07:20:55.149Z,100865.90
2017-12-03T07:23:57.299Z,100867.69
2017-12-03T07:26:58.681Z,100852.30
2017-12-03T07:30:00.821Z,100866.58
2017-12-03T07:33:02.245Z,100862.89
2017-12-03T07:36:03.659Z,100859.22
2017-12-03T07:39:05.036Z,100868.89
2017-12-03T07:42:06.512Z,100863.59
2017-12-03T07:45:07.892Z,100861.47
2017-12-03T07:48:10.105Z,100870.45
2017-12-03T07:51:11.489Z,100868.34
2017-12-03T07:54:12.919Z,100865.74
2017-12-03T07:57:14.383Z,100867.25
2017-12-03T08:00:15.793Z,100866.70
2017-12-03T08:03:17.234Z,100870.58
2017-12-03T08:06:19.409Z,100873.00
2017-12-03T08:09:20.775Z,100860.74
2017-12-03T08:12:22.180Z,100859.28
2017-12-03T08:15:23.796Z,100862.27
2017-12-03T08:18:25.281Z,100867.10
2017-12-03T08:21:26.703Z,100862.02
2017-12-03T08:24:28.183Z,100859.03
2017-12-03T08:27:29.556Z,100861.56
2017-12-03T08:30:31.690Z,100868.67
2017-12-03T08:33:33.061Z,100874.21
2017-12-03T08:36:34.511Z,100877.02
2017-12-03T08:39:35.900Z,100881.16
2017-12-03T08:42:37.298Z,100875.84
2017-12-03T08:45:38.969Z,100871.08
2017-12-03T08:48:40.512Z,100881.19
2017-12-03T08:51:41.893Z,100880.95
2017-12-03T08:54:44.027Z,100888.75
2017-12-03T08:57:45.492Z,100884.00
2017-12-03T09:00:47.079Z,100886.11
2017-12-03T09:03:49.207Z,100882.45
2017-12-03T09:06:50.640Z,100880.87
2017-12-03T09:09:51.979Z,100877.03
2017-12-03T09:12:53.420Z,100868.20
2017-12-03T09:15:54.796Z,100868.06
2017-12-03T09:18:56.383Z,100868.80
2017-12-03T09:21:58.046Z,100865.15
2017-12-03T09:24:59.489Z,100872.23
2017-12-03T09:28:00.856Z,100878.84
2017-12-03T09:31:03.009Z,100884.59
2017-12-03T09:34:04.419Z,100877.02
2017-12-03T09:37:05.892Z,100868.23
2017-12-03T09:40:07.343Z,100868.99
2017-12-03T09:43:08.678Z,100880.79
2017-12-03T09:46:10.072Z,100881.82
2017-12-03T09:49:11.416Z,100878.23
2017-12-03T09:52:12.800Z,100898.16
2017-12-03T09:55:14.996Z,100890.34
2017-12-03T09:58:16.508Z,100885.56
2017-12-03T10:01:17.882Z,100881.97
2017-12-03T10:04:20.040Z,100875.92
2017-12-03T10:07:22.148Z,100873.75
2017-12-03T10:10:23.582Z,100863.50
2017-12-03T10:13:25.003Z,100870.00
2017-12-03T10:16:26.464Z,100864.49
2017-12-03T10:19:27.927Z,100856.14
2017-12-03T10:22:30.025Z,100850.35
2017-12-03T10:25:31.404Z,100855.63
2017-12-03T10:28:32.815Z,100838.81
2017-12-03T10:31:34.176Z,100859.75
2017-12-03T10:34:35.613Z,100845.45
2017-12-03T10:37:56.300Z,100847.92
2017-12-03T10:40:58.476Z,100846.38
2017-12-03T10:44:00.620Z,100840.23
2017-12-03T10:47:01.978Z,100837.91
2017-12-03T10:50:03.390Z,100847.50
2017-12-03T10:53:04.737Z,100836.31
2017-12-03T10:56:06.232Z,100838.38
2017-12-03T10:59:07.684Z,100833.34
2017-12-03T11:02:09.063Z,100816.52
2017-12-03T11:05:11.180Z,100819.44
2017-12-03T11:08:12.632Z,100811.05
2017-12-03T11:11:13.973Z,100810.55
2017-12-03T11:14:15.286Z,100800.14
2017-12-03T11:17:16.725Z,100803.59
2017-12-03T11:20:18.867Z,100789.84
2017-12-03T11:23:20.251Z,100782.89
2017-12-03T11:26:22.527Z,100792.56
2017-12-03T11:29:24.138Z,100793.85
2017-12-03T11:32:25.735Z,100795.32
2017-12-03T11:35:28.132Z,100800.23
2017-12-03T11:38:29.569Z,100798.33
2017-12-03T11:41:31.009Z,100805.32
2017-12-03T11:44:33.123Z,100808.67
2017-12-03T11:47:35.461Z,100814.81
2017-12-03T11:50:36.819Z,100806.31
2017-12-03T11:53:38.174Z,100803.03
2017-12-03T11:56:39.921Z,100801.45
2017-12-03T11:59:41.341Z,100798.05
2017-12-03T12:02:42.759Z,100803.30
2017-12-03T12:05:44.120Z,100790.25
2017-12-03T12:08:45.557Z,100789.31
2017-12-03T12:11:46.937Z,100777.08
2017-12-03T12:14:48.323Z,100783.73
2017-12-03T12:17:50.806Z,100764.28
2017-12-03T12:20:52.924Z,100777.55
2017-12-03T12:23:54.324Z,100769.23
2017-12-03T12:26:56.460Z,100771.69
2017-12-03T12:29:57.837Z,100766.72
2017-12-03T12:32:59.398Z,100771.22
2017-12-03T12:36:00.923Z,100776.62
2017-12-03T12:39:03.908Z,100771.03
2017-12-03T12:42:06.090Z,100740.44
2017-12-03T12:45:07.565Z,100748.61
2017-12-03T12:48:10.022Z,100745.30
2017-12-03T12:51:12.546Z,100753.05
2017-12-03T12:54:14.391Z,100747.62
2017-12-03T12:57:16.775Z,100742.24
2017-12-03T13:00:18.267Z,100737.22
2017-12-03T13:03:19.893Z,100729.11
2017-12-03T13:06:21.416Z,100737.17
2017-12-03T13:09:22.965Z,100732.13
2017-12-03T13:12:25.147Z,100727.42
2017-12-03T13:15:26.617Z,100732.76
2017-12-03T13:18:28.772Z,100735.22
2017-12-03T13:21:30.991Z,100728.52
2017-12-03T13:24:32.388Z,100728.77
2017-12-03T13:27:33.858Z,100732.46
2017-12-03T13:30:35.944Z,100725.16
2017-12-03T13:33:37.313Z,100730.85
2017-12-03T13:36:38.756Z,100731.17
2017-12-03T13:39:40.148Z,100732.06
2017-12-03T13:42:41.541Z,100732.91
2017-12-03T13:45:42.900Z,100736.80
2017-12-03T13:48:44.321Z,100743.29
2017-12-03T13:51:45.708Z,100739.55
2017-12-03T13:54:47.145Z,100745.02
2017-12-03T13:57:49.232Z,100740.70
2017-12-03T14:00:50.616Z,100740.61
2017-12-03T14:03:52.044Z,100734.56
2017-12-03T14:06:53.512Z,100743.80
2017-12-03T14:09:54.970Z,100742.91
2017-12-03T14:12:56.334Z,100734.72
2017-12-03T14:15:57.737Z,100743.78
2017-12-03T14:18:59.121Z,100744.65
2017-12-03T14:22:00.498Z,100745.19
2017-12-03T14:25:01.880Z,100743.80
2017-12-03T14:28:04.008Z,100745.32
2017-12-03T14:31:05.409Z,100749.64
2017-12-03T14:34:07.524Z,100754.77
2017-12-03T14:37:08.897Z,100742.92
2017-12-03T14:40:10.273Z,100758.20
2017-12-03T14:43:12.457Z,100761.71
2017-12-03T14:46:13.844Z,100765.11
2017-12-03T14:49:15.248Z,100768.16
2017-12-03T14:52:17.321Z,100767.02
2017-12-03T14:55:18.708Z,100770.59
2017-12-03T14:58:20.080Z,100777.09
2017-12-03T15:01:21.423Z,100780.46
2017-12-03T15:04:22.884Z,100768.95
2017-12-03T15:07:24.276Z,100772.44
2017-12-03T15:10:25.756Z,100778.41
2017-12-03T15:13:27.160Z,100772.91
2017-12-03T15:16:29.272Z,100776.78
2017-12-03T15:19:30.657Z,100775.95
2017-12-03T15:22:32.072Z,100780.58
2017-12-03T15:25:33.464Z,100775.53
2017-12-03T15:28:35.077Z,100784.16
2017-12-03T15:31:37.295Z,100779.44
2017-12-03T15:34:38.663Z,100780.38
2017-12-03T15:37:40.816Z,100784.62
2017-12-03T15:40:42.192Z,100781.22
2017-12-03T15:43:44.376Z,100778.42
2017-12-03T15:46:45.759Z,100778.33
2017-12-03T15:49:47.168Z,100773.45
2017-12-03T15:52:49.321Z,100781.80
2017-12-03T15:55:51.450Z,100781.30
2017-12-03T15:58:52.999Z,100786.53
2017-12-03T16:01:54.392Z,100786.14
2017-12-03T16:04:55.805Z,100798.38
2017-12-03T16:07:57.253Z,100794.18
2017-12-03T16:10:59.336Z,100796.96
2017-12-03T16:14:00.728Z,100803.80
2017-12-03T16:17:02.860Z,100801.40
2017-12-03T16:20:04.562Z,100798.72
2017-12-03T16:23:05.963Z,100801.16
2017-12-03T16:26:08.111Z,100805.49
2017-12-03T16:29:09.496Z,100805.17
2017-12-03T16:32:10.929Z,100812.66
2017-12-03T16:35:12.309Z,100811.45
2017-12-03T16:38:13.696Z,100799.48
2017-12-03T16:41:15.056Z,100818.49
2017-12-03T16:44:16.453Z,100813.26
2017-12-03T16:47:17.877Z,100816.19
2017-12-03T16:50:19.383Z,100818.03
2017-12-03T16:53:21.631Z,100822.34
2017-12-03T16:56:23.056Z,100828.23
2017-12-03T16:59:24.400Z,100829.41
2017-12-03T17:02:25.799Z,100834.73
2017-12-03T17:05:27.323Z,100824.45
2017-12-03T17:08:28.783Z,100832.41
2017-12-03T17:11:30.352Z,100837.66
2017-12-03T17:14:31.888Z,100834.27
2017-12-03T17:17:33.357Z,100831.70
2017-12-03T17:20:35.568Z,100829.13
2017-12-03T17:23:37.098Z,100830.66
2017-12-03T17:26:38.540Z,100826.82
2017-12-03T17:29:39.914Z,100807.48
2017-12-03T17:32:42.163Z,100837.64
2017-12-03T17:35:43.671Z,100836.01
2017-12-03T17:38:45.304Z,100838.41
2017-12-03T17:41:46.775Z,100847.94
2017-12-03T17:44:48.480Z,100835.23
2017-12-03T17:47:51.008Z,100844.79
2017-12-03T17:50:52.532Z,100843.36
2017-12-03T17:53:54.840Z,100843.56
2017-12-03T17:56:56.214Z,100845.73
2017-12-03T17:59:57.733Z,100839.83
2017-12-03T18:02:59.321Z,100845.81
2017-12-03T18:06:01.680Z,100851.92
2017-12-03T18:09:03.375Z,100860.17
2017-12-03T18:12:05.276Z,100863.64
2017-12-03T18:15:06.704Z,100862.08
2017-12-03T18:18:08.990Z,100868.73
2017-12-03T18:21:10.526Z,100885.89
2017-12-03T18:24:12.150Z,100878.79
2017-12-03T18:27:13.617Z,100883.33
2017-12-03T18:30:15.390Z,100882.27
2017-12-03T18:33:18.798Z,100875.16
2017-12-03T18:36:21.087Z,100889.77
2017-12-03T18:39:23.417Z,100894.14
2017-12-03T18:42:25.717Z,100898.21
2017-12-03T18:45:28.321Z,100900.10
2017-12-03T18:48:29.802Z,100888.18
2017-12-03T18:51:31.902Z,100886.01
2017-12-03T18:54:33.451Z,100887.44
2017-12-03T18:57:36.208Z,100896.47
2017-12-03T19:00:38.094Z,100889.78
2017-12-03T19:03:39.782Z,100900.87
2017-12-03T19:06:42.013Z,100891.08
2017-12-03T19:09:43.494Z,100890.92
2017-12-03T19:12:45.221Z,100880.86
2017-12-03T19:15:48.240Z,100877.36
2017-12-03T19:18:52.948Z,100883.92
2017-12-03T19:21:54.961Z,100893.47
2017-12-03T19:24:57.321Z,100896.41
2017-12-03T19:27:59.933Z,100895.68
2017-12-03T19:31:02.619Z,100898.45
2017-12-03T19:34:05.320Z,100895.85
2017-12-03T19:37:07.446Z,100887.11
2017-12-03T19:40:09.021Z,100887.48
2017-12-03T19:43:10.478Z,100901.36
2017-12-03T19:46:11.957Z,100897.53
2017-12-03T19:49:14.773Z,100896.59
2017-12-03T19:52:17.816Z,100904.13
2017-12-03T19:55:19.310Z,100903.19
2017-12-03T19:58:23.910Z,100913.77
2017-12-03T20:01:25.275Z,100914.19
2017-12-03T20:04:27.414Z,100902.31
2017-12-03T20:07:29.004Z,100903.57
2017-12-03T20:10:31.388Z,100903.50
2017-12-03T20:13:34.933Z,100907.08
2017-12-03T20:16:36.456Z,100903.77
2017-12-03T20:19:37.939Z,100897.45
2017-12-03T20:22:40.716Z,100909.29
2017-12-03T20:25:42.820Z,100921.82
2017-12-03T20:28:44.909Z,100922.08
2017-12-03T20:31:46.842Z,100922.56
2017-12-03T20:34:48.399Z,100921.72
2017-12-03T20:37:50.020Z,100918.22
2017-12-03T20:40:52.077Z,100924.91
2017-12-03T20:43:53.760Z,100959.55
2017-12-03T20:46:58.158Z,100937.27
2017-12-03T20:50:00.237Z,100944.86
2017-12-03T20:53:01.769Z,100942.09
2017-12-03T20:56:03.259Z,100942.27
2017-12-03T20:59:05.522Z,100948.09
2017-12-03T21:02:06.992Z,100953.83
2017-12-03T21:05:09.062Z,100953.73
2017-12-03T21:08:11.663Z,100959.91
2017-12-03T21:11:13.103Z,100961.72
2017-12-03T21:14:14.580Z,100957.17
2017-12-03T21:17:16.043Z,100960.61
2017-12-03T21:20:17.568Z,100952.84
2017-12-03T21:23:19.030Z,100960.19
2017-12-03T21:26:20.485Z,100973.47
2017-12-03T21:29:21.927Z,100968.05
2017-12-03T21:32:23.431Z,100974.51
2017-12-03T21:35:24.984Z,100982.75
2017-12-03T21:38:26.461Z,100975.50
2017-12-03T21:41:27.976Z,100978.39
2017-12-03T21:44:29.495Z,100979.37
2017-12-03T21:47:31.776Z,100986.05
2017-12-03T21:50:33.194Z,100977.36
2017-12-03T21:53:34.777Z,100979.84
2017-12-03T21:56:36.156Z,100973.98
2017-12-03T21:59:37.513Z,100975.81
2017-12-03T22:02:38.899Z,100980.33
2017-12-03T22:05:40.265Z,100980.03
2017-12-03T22:08:42.417Z,100984.09
2017-12-03T22:11:43.752Z,100987.02
2017-12-03T22:14:45.165Z,100985.70
2017-12-03T22:17:46.524Z,100986.91
2017-12-03T22:20:47.907Z,100998.80
2017-12-03T22:23:49.264Z,100996.73
2017-12-03T22:26:50.640Z,100994.91
2017-12-03T22:29:52.766Z,100997.88
2017-12-03T22:32:54.167Z,100993.70
2017-12-03T22:35:56.296Z,100987.96
2017-12-03T22:38:57.831Z,100976.80
2017-12-03T22:41:59.236Z,100965.53
2017-12-03T22:45:01.355Z,100974.45
2017-12-03T22:48:02.759Z,100982.49
2017-12-03T22:51:04.105Z,100996.48
2017-12-03T22:54:06.235Z,100999.83
2017-12-03T22:57:07.708Z,101007.34
2017-12-03T23:00:09.259Z,101019.08
2017-12-03T23:03:10.631Z,101016.70
2017-12-03T23:06:12.714Z,101012.91
2017-12-03T23:09:14.244Z,101012.47
2017-12-03T23:12:15.580Z,101021.33
2017-12-03T23:15:16.956Z,101025.35
2017-12-03T23:18:19.044Z,101014.74
2017-12-03T23:21:20.492Z,101024.47
2017-12-03T23:24:21.925Z,101017.59
2017-12-03T23:27:24.153Z,101024.58
2017-12-03T23:30:25.663Z,101020.89
2017-12-03T23:33:27.862Z,101019.98
2017-12-03T23:36:29.320Z,101015.58
2017-12-03T23:39:30.730Z,100996.16
2017-12-03T23:42:33.067Z,101002.73
2017-12-03T23:45:34.507Z,101000.18
2017-12-03T23:48:35.924Z,100990.69
2017-12-03T23:51:37.347Z,101001.83
2017-12-03T23:54:38.811Z,101009.41
2017-12-03T23:57:41.025Z,101012.70
